Time;durP1;ratioP1;P1;durP2;ratioP2;P2;SDS_P1;SDS_P2;PMS_P1;PMS_P2;Temp;Humidity;BMP_temperature;BMP_pressure;BME280_temperature;BME280_humidity;BME280_pressure;Samples;Min_cycle;Max_cycle;Signal;HPM_P1;HPM_P2
2022/05/02 00:02:24;;;;;;;10.60;5.80;;;;;;;7.26;75.12;101486.23;106388;1260;60071;-69
2022/05/02 00:04:54;;;;;;;7.80;5.30;;;;;;;7.29;74.96;101482.30;106415;1260;72995;-70
2022/05/02 00:07:22;;;;;;;9.70;6.30;;;;;;;7.30;75.60;101478.62;106456;1260;72441;-68
2022/05/02 00:09:52;;;;;;;9.20;6.40;;;;;;;7.31;75.48;101484.46;106587;1260;71280;-69
2022/05/02 00:12:21;;;;;;;9.20;6.00;;;;;;;7.28;74.26;101486.14;106522;1260;72950;-72
2022/05/02 00:14:49;;;;;;;8.00;5.90;;;;;;;7.20;74.07;101476.64;106526;1260;63390;-69
2022/05/02 00:17:19;;;;;;;7.50;5.50;;;;;;;7.13;75.48;101479.89;106481;1260;60123;-69
2022/05/02 00:19:48;;;;;;;8.00;5.90;;;;;;;7.07;76.23;101482.58;106447;1260;74084;-71
2022/05/02 00:22:17;;;;;;;8.40;6.00;;;;;;;7.08;75.93;101479.27;106439;1260;71943;-72
2022/05/02 00:24:45;;;;;;;7.90;6.00;;;;;;;7.13;75.84;101476.27;106334;1261;70559;-69
2022/05/02 00:27:15;;;;;;;9.90;6.80;;;;;;;7.14;76.07;101475.02;106454;1260;74651;-70
2022/05/02 00:29:43;;;;;;;13.40;7.30;;;;;;;7.07;76.59;101475.11;106341;1261;60829;-71
2022/05/02 00:32:12;;;;;;;9.70;6.00;;;;;;;7.07;76.37;101477.02;106149;1260;61328;-68
2022/05/02 00:34:41;;;;;;;9.00;6.10;;;;;;;7.04;74.61;101474.75;106184;1260;74175;-67
2022/05/02 00:37:11;;;;;;;10.80;6.00;;;;;;;6.96;75.21;101475.14;106557;1260;72963;-69
2022/05/02 00:39:40;;;;;;;10.70;6.30;;;;;;;6.90;76.21;101475.04;106584;1260;70197;-69
2022/05/02 00:42:09;;;;;;;8.80;6.10;;;;;;;6.86;77.08;101473.65;106555;1261;74037;-70
2022/05/02 00:44:43;;;;;;;9.70;6.90;;;;;;;6.87;77.34;101467.71;106296;1261;60845;-71
2022/05/02 00:47:15;;;;;;;9.90;6.70;;;;;;;6.84;77.63;101465.11;106195;1260;60200;-71
2022/05/02 00:49:44;;;;;;;11.30;6.70;;;;;;;6.77;77.76;101466.45;106088;1260;72005;-71
2022/05/02 00:52:13;;;;;;;12.20;7.10;;;;;;;6.78;77.76;101463.48;106055;1262;70767;-68
2022/05/02 00:54:44;;;;;;;11.10;7.50;;;;;;;6.80;77.83;101463.38;106124;1260;68188;-70
2022/05/02 00:57:15;;;;;;;11.60;7.10;;;;;;;6.80;77.46;101463.05;106187;1261;72035;-69
2022/05/02 00:59:45;;;;;;;9.70;6.70;;;;;;;6.76;77.11;101460.09;106197;1261;60833;-71
2022/05/02 01:02:15;;;;;;;12.60;7.00;;;;;;;6.73;77.23;101461.11;106210;1260;60538;-69
2022/05/02 01:04:44;;;;;;;9.40;7.50;;;;;;;6.70;78.00;101459.34;106517;1260;73018;-69
2022/05/02 01:07:19;;;;;;;11.60;7.10;;;;;;;6.70;77.99;101461.90;106479;1261;72692;-71
2022/05/02 01:09:51;;;;;;;9.60;7.30;;;;;;;6.69;77.46;101461.95;106370;1262;70355;-72
2022/05/02 01:12:25;;;;;;;8.90;6.60;;;;;;;6.72;77.88;101458.41;106367;1262;74539;-68
2022/05/02 01:14:57;;;;;;;13.70;7.60;;;;;;;6.74;77.74;101462.98;106266;1261;63177;-68
2022/05/02 01:17:25;;;;;;;8.40;6.10;;;;;;;6.69;77.76;101461.64;106262;1261;60689;-66
2022/05/02 01:19:54;;;;;;;12.70;6.90;;;;;;;6.67;77.75;101460.48;106207;1260;73340;-70
2022/05/02 01:22:23;;;;;;;9.70;6.80;;;;;;;6.66;77.77;101456.57;105747;1260;616588;-71
2022/05/02 01:24:52;;;;;;;13.00;7.50;;;;;;;6.68;77.66;101454.42;106174;1260;69225;-70
2022/05/02 01:27:21;;;;;;;13.10;7.30;;;;;;;6.64;77.95;101455.42;106228;1260;75659;-70
2022/05/02 01:29:50;;;;;;;14.10;8.90;;;;;;;6.61;78.16;101455.88;106182;1260;63662;-73
2022/05/02 01:32:18;;;;;;;12.50;8.10;;;;;;;6.59;78.80;101455.98;106197;1262;61717;-70
2022/05/02 01:34:47;;;;;;;15.80;8.80;;;;;;;6.58;78.71;101458.10;106458;1261;72726;-78
2022/05/02 01:37:18;;;;;;;17.00;8.70;;;;;;;6.57;78.50;101458.00;106492;1261;71317;-73
2022/05/02 01:39:47;;;;;;;14.80;8.60;;;;;;;6.56;78.44;101458.17;106300;1262;69168;-73
2022/05/02 01:42:16;;;;;;;14.30;8.30;;;;;;;6.55;78.65;101455.30;106328;1261;71291;-75
2022/05/02 01:44:45;;;;;;;15.70;7.90;;;;;;;6.56;78.51;101456.30;106383;1260;62236;-74
2022/05/02 01:47:14;;;;;;;11.20;7.30;;;;;;;6.52;78.56;101454.73;106397;1260;60088;-74
2022/05/02 01:49:43;;;;;;;11.60;7.30;;;;;;;6.51;78.64;101458.08;106375;1262;71565;-74
2022/05/02 01:52:12;;;;;;;11.40;7.60;;;;;;;6.53;78.65;101460.42;106408;1260;70910;-74
2022/05/02 01:54:40;;;;;;;12.70;7.30;;;;;;;6.47;78.43;101462.42;106401;1260;70553;-75
2022/05/02 01:57:09;;;;;;;15.20;7.50;;;;;;;6.42;78.14;101460.36;106393;1260;71634;-74
2022/05/02 01:59:38;;;;;;;15.90;7.50;;;;;;;6.35;78.53;101454.63;106377;1260;61296;-74
2022/05/02 02:02:07;;;;;;;12.20;8.30;;;;;;;6.23;79.33;101451.19;106421;1261;62324;-75
2022/05/02 02:07:23;;;;;;;13.90;8.40;;;;;;;6.11;80.24;101449.55;106405;1260;70449;-75
2022/05/02 02:09:52;;;;;;;12.00;7.90;;;;;;;6.12;79.79;101445.40;106714;1261;69761;-76
2022/05/02 02:12:20;;;;;;;17.30;8.70;;;;;;;6.02;80.35;101444.92;106766;1260;72547;-75
2022/05/02 02:14:49;;;;;;;16.50;7.90;;;;;;;6.03;80.00;101440.60;106523;1260;62860;-74
2022/05/02 02:17:18;;;;;;;16.50;9.10;;;;;;;6.04;80.13;101441.55;106421;1262;60036;-76
2022/05/02 02:19:47;;;;;;;15.10;9.00;;;;;;;6.05;79.65;101434.08;106598;1261;71904;-74
2022/05/02 02:22:19;;;;;;;14.20;9.10;;;;;;;6.02;80.40;101435.08;106684;1260;72307;-76
2022/05/02 02:24:48;;;;;;;16.30;9.80;;;;;;;5.99;80.41;101437.64;106597;1261;69974;-75
2022/05/02 02:27:18;;;;;;;12.70;8.50;;;;;;;5.99;80.37;101437.28;106372;1261;74437;-75
2022/05/02 02:29:46;;;;;;;12.40;8.60;;;;;;;5.95;80.65;101439.17;106408;1262;62791;-72
2022/05/02 02:32:15;;;;;;;13.60;8.30;;;;;;;5.95;80.08;101443.86;106401;1260;60463;-73
2022/05/02 02:34:44;;;;;;;12.40;8.40;;;;;;;5.92;79.98;101444.16;106199;1261;72922;-77
2022/05/02 02:37:13;;;;;;;13.40;9.10;;;;;;;5.87;80.59;101443.10;106344;1262;70072;-74
2022/05/02 02:39:43;;;;;;;13.40;8.50;;;;;;;5.79;80.82;101440.14;106363;1260;70229;-75
2022/05/02 02:42:12;;;;;;;13.30;8.50;;;;;;;5.77;80.66;101435.20;106206;1260;75189;-74
2022/05/02 02:44:41;;;;;;;12.70;8.60;;;;;;;5.76;80.94;101432.70;106240;1260;61985;-75
2022/05/02 02:47:10;;;;;;;15.50;9.30;;;;;;;5.75;80.68;101436.18;106283;1260;61400;-76
2022/05/02 02:49:38;;;;;;;13.70;9.30;;;;;;;5.76;81.08;101434.77;106337;1262;74951;-74
2022/05/02 02:52:08;;;;;;;13.40;9.80;;;;;;;5.76;80.94;101434.21;106380;1260;70028;-73
2022/05/02 02:54:37;;;;;;;12.70;9.50;;;;;;;5.75;80.86;101436.20;106408;1260;70622;-74
2022/05/02 02:57:05;;;;;;;15.40;10.00;;;;;;;5.70;80.95;101434.99;106390;1260;73794;-73
2022/05/02 02:59:34;;;;;;;15.20;10.20;;;;;;;5.68;81.06;101434.73;106370;1261;61651;-75
2022/05/02 03:02:05;;;;;;;14.60;9.00;;;;;;;5.66;80.83;101433.42;106556;1260;59045;-75
2022/05/02 03:07:26;;;;;;;14.70;9.70;;;;;;;5.56;81.69;101435.36;106524;1260;70415;-76
2022/05/02 03:09:57;;;;;;;16.60;9.70;;;;;;;5.59;81.64;101434.38;106551;1260;68792;-74
2022/05/02 03:12:27;;;;;;;13.80;9.80;;;;;;;5.60;81.52;101433.66;106342;1262;73038;-76
2022/05/02 03:14:56;;;;;;;15.50;10.00;;;;;;;5.61;81.63;101431.89;106308;1260;62447;-76
2022/05/02 03:17:24;;;;;;;17.20;9.40;;;;;;;5.67;81.52;101437.72;106573;1261;60295;-74
2022/05/02 03:19:54;;;;;;;18.10;10.70;;;;;;;5.65;81.62;101436.42;106571;1260;72526;-72
2022/05/02 03:22:23;;;;;;;53.30;25.20;;;;;;;5.64;81.74;101440.10;106526;1260;72347;-72
2022/05/02 03:24:51;;;;;;;19.00;11.20;;;;;;;5.69;81.51;101437.60;106415;1260;70222;-72
2022/05/02 03:27:20;;;;;;;16.70;11.50;;;;;;;5.77;82.16;101441.29;106418;1263;71914;-73
2022/05/02 03:29:49;;;;;;;18.20;11.00;;;;;;;5.88;81.27;101444.45;106589;1260;63080;-74
2022/05/02 03:32:18;;;;;;;19.30;13.10;;;;;;;5.98;80.86;101449.45;106310;1260;60949;-73
2022/05/02 03:34:47;;;;;;;19.50;12.70;;;;;;;6.08;80.59;101449.34;106526;1263;72312;-74
2022/05/02 03:37:18;;;;;;;20.20;12.60;;;;;;;6.20;80.28;101450.95;106239;1262;70125;-74
2022/05/02 03:39:48;;;;;;;19.00;12.50;;;;;;;6.29;79.92;101445.00;106146;1260;72625;-74
2022/05/02 03:42:17;;;;;;;20.40;12.50;;;;;;;6.40;79.66;101443.67;106081;1261;75599;-73
2022/05/02 03:44:47;;;;;;;20.60;12.40;;;;;;;6.47;79.35;101446.65;106173;1261;61074;-72
2022/05/02 03:47:17;;;;;;;19.90;12.70;;;;;;;6.57;79.05;101452.13;106024;1261;61443;-74
2022/05/02 03:49:46;;;;;;;21.20;13.60;;;;;;;6.67;79.20;101454.27;106102;1262;73234;-72
2022/05/02 03:52:16;;;;;;;21.00;13.70;;;;;;;6.76;78.81;101454.70;106095;1263;72639;-74
2022/05/02 03:54:45;;;;;;;27.00;13.60;;;;;;;6.85;78.53;101453.46;106184;1261;67751;-73
2022/05/02 03:57:16;;;;;;;20.10;13.90;;;;;;;6.93;78.57;101457.05;106262;1261;73829;-74
2022/05/02 03:59:46;;;;;;;24.70;13.60;;;;;;;6.97;78.27;101448.95;106244;1258;63116;-74
2022/05/02 04:02:16;;;;;;;22.80;13.70;;;;;;;7.12;78.23;101457.77;106227;1262;61929;-74
2022/05/02 04:04:46;;;;;;;19.60;13.10;;;;;;;7.10;78.21;101450.77;106315;1262;73554;-75
2022/05/02 04:07:15;;;;;;;24.30;13.50;;;;;;;7.24;77.98;101458.62;107055;1260;71883;-76
2022/05/02 04:09:44;;;;;;;22.80;12.50;;;;;;;7.31;77.74;101459.30;107421;1260;68755;-80
2022/05/02 04:12:13;;;;;;;21.10;9.90;;;;;;;7.35;76.40;101454.26;107726;1260;71231;-79
2022/05/02 04:14:42;;;;;;;17.70;11.40;;;;;;;7.27;76.07;101457.44;107204;1260;60644;-77
2022/05/02 04:17:12;;;;;;;18.60;10.00;;;;;;;7.15;76.50;101461.61;106819;1260;61341;-78
2022/05/02 04:19:41;;;;;;;14.90;9.90;;;;;;;7.16;76.11;101459.14;107095;1260;75657;-81
2022/05/02 04:22:09;;;;;;;16.60;10.00;;;;;;;7.07;76.46;101458.71;107116;1260;72845;-80
2022/05/02 04:24:38;;;;;;;15.80;10.10;;;;;;;7.08;76.50;101456.73;106933;1263;69362;-79
2022/05/02 04:27:08;;;;;;;20.30;11.70;;;;;;;7.13;76.43;101457.53;107275;1261;71971;-80
2022/05/02 04:29:37;;;;;;;20.90;10.90;;;;;;;7.21;76.38;101454.41;107529;1260;62754;-78
2022/05/02 04:32:07;;;;;;;22.10;12.40;;;;;;;7.32;76.23;101456.16;107654;1260;60138;-80
2022/05/02 04:34:35;;;;;;;19.10;11.60;;;;;;;7.41;76.01;101453.50;107499;1260;72077;-77
2022/05/02 04:37:05;;;;;;;22.70;11.80;;;;;;;7.50;76.29;101453.89;107074;1260;70479;-78
2022/05/02 04:39:34;;;;;;;25.10;13.20;;;;;;;7.62;76.21;101452.81;107334;1260;70650;-79
2022/05/02 04:42:04;;;;;;;27.60;14.30;;;;;;;7.78;75.89;101452.21;107356;1260;72652;-80
2022/05/02 04:44:34;;;;;;;27.90;14.10;;;;;;;7.89;75.27;101454.61;107692;1259;60996;-80
2022/05/02 04:47:04;;;;;;;22.80;14.00;;;;;;;7.95;75.19;101454.66;107478;1260;61179;-81
2022/05/02 04:49:34;;;;;;;33.10;15.50;;;;;;;8.08;75.26;101458.17;107582;1260;72403;-81
2022/05/02 04:52:03;;;;;;;30.00;15.70;;;;;;;8.26;74.50;101462.33;107445;1260;72324;-80
2022/05/02 04:54:31;;;;;;;33.30;16.20;;;;;;;8.30;73.76;101461.22;107049;1260;70687;-78
2022/05/02 04:57:01;;;;;;;30.30;16.60;;;;;;;8.39;73.52;101460.14;107165;1260;71822;-80
2022/05/02 04:59:31;;;;;;;23.90;15.90;;;;;;;8.52;73.39;101459.46;107237;1260;59475;-81
2022/05/02 05:02:00;;;;;;;27.60;15.20;;;;;;;8.64;72.42;101460.73;107590;1260;60312;-78
2022/05/02 05:04:29;;;;;;;26.10;14.30;;;;;;;8.72;71.98;101460.97;107468;1260;75165;-80
2022/05/02 05:06:58;;;;;;;24.80;14.20;;;;;;;8.79;71.88;101456.30;107411;1260;72132;-81
2022/05/02 05:09:26;;;;;;;19.90;13.60;;;;;;;8.91;71.50;101449.90;107375;1260;69810;-81
2022/05/02 05:12:31;;;;;;;29.20;16.30;;;;;;;9.08;70.68;101456.45;107420;1260;73100;-79
2022/05/02 05:18:38;;;;;;;30.00;15.90;;;;;;;9.45;69.00;101455.29;107764;1260;58942;-80
2022/05/02 05:21:17;;;;;;;18.70;12.10;;;;;;;9.59;68.27;101449.98;107667;1260;73714;-81
2022/05/02 05:24:32;;;;;;;24.10;12.10;;;;;;;9.75;67.19;101449.45;107880;1260;71888;-80
2022/05/02 05:27:16;;;;;;;20.60;11.60;;;;;;;9.91;66.79;101448.52;108024;1260;71008;-82
2022/05/02 05:30:05;;;;;;;23.50;11.80;;;;;;;10.02;66.42;101446.86;108027;1258;73853;-81
2022/05/02 05:33:22;;;;;;;23.80;12.80;;;;;;;10.16;65.25;101446.34;107759;1260;60557;-81
2022/05/02 05:36:19;;;;;;;20.40;10.10;;;;;;;10.39;64.78;101445.74;107555;1260;60409;-81
2022/05/02 05:39:07;;;;;;;23.90;11.30;;;;;;;10.51;64.23;101443.98;107884;1260;73806;-82
2022/05/02 05:46:43;;;;;;;24.20;10.40;;;;;;;10.91;62.42;101442.88;108170;1260;70865;-80
2022/05/02 05:49:49;;;;;;;21.10;10.90;;;;;;;11.08;61.21;101443.55;107968;1261;72909;-81
2022/05/02 05:53:33;;;;;;;19.10;11.70;;;;;;;11.30;60.73;101442.89;108095;1260;60599;-82
2022/05/02 05:56:56;;;;;;;21.80;11.50;;;;;;;11.48;60.90;101442.39;108305;1260;61738;-81
2022/05/02 06:00:12;;;;;;;21.90;10.30;;;;;;;11.64;59.45;101442.61;108399;1260;74396;-83
2022/05/02 06:03:26;;;;;;;19.00;10.00;;;;;;;11.82;58.96;101439.16;108338;1260;71735;-82
2022/05/02 06:06:31;;;;;;;16.50;9.50;;;;;;;12.00;57.24;101438.54;108330;1260;68882;-80
2022/05/02 06:09:07;;;;;;;16.60;9.70;;;;;;;12.22;56.50;101433.55;108042;1260;73403;-82
2022/05/02 06:12:05;;;;;;;;;;;;;;;;;;;;;
2022/05/02 06:24:22;;;;;;;13.80;8.20;;;;;;;13.00;52.68;101430.35;108687;1259;71948;-83
2022/05/02 06:27:28;;;;;;;13.00;7.30;;;;;;;13.08;52.60;101406.42;108119;1260;69066;-81
2022/05/02 06:30:43;;;;;;;9.00;6.20;;;;;;;13.38;53.64;101413.64;108265;1260;71640;-81
2022/05/02 06:37:55;;;;;;;14.90;6.20;;;;;;;13.70;51.34;101416.55;107967;1264;61120;-80
2022/05/02 06:42:52;;;;;;;10.10;6.00;;;;;;;14.04;50.73;101421.21;107437;1267;73980;-83
2022/05/02 06:50:10;;;;;;;12.90;6.50;;;;;;;14.38;49.93;101419.16;107756;1267;70400;-81
2022/05/02 06:53:35;;;;;;;7.80;5.20;;;;;;;14.58;49.87;101423.95;107825;1267;73929;-82
2022/05/02 06:56:50;;;;;;;8.00;5.60;;;;;;;14.77;48.87;101414.92;107590;1268;61123;-81
2022/05/02 07:01:00;;;;;;;9.70;5.50;;;;;;;14.75;48.56;101400.32;107378;1271;61159;-83
2022/05/02 07:05:48;;;;;;;11.80;5.50;;;;;;;14.91;48.25;101408.16;107361;1273;74423;-81
2022/05/02 07:09:01;;;;;;;21.30;6.00;;;;;;;15.16;48.52;101406.17;107214;1273;72636;-82
2022/05/02 07:12:19;;;;;;;9.40;5.40;;;;;;;15.50;48.55;101407.06;107148;1273;70051;-81
2022/05/02 07:15:12;;;;;;;12.20;6.10;;;;;;;15.59;47.29;101395.52;107141;1270;74984;-79
2022/05/02 07:18:02;;;;;;;10.50;5.50;;;;;;;15.62;46.61;101401.67;107442;1267;58027;-82
2022/05/02 07:20:50;;;;;;;12.90;5.40;;;;;;;15.84;46.49;101404.31;107578;1267;59349;-79
2022/05/02 07:23:34;;;;;;;7.90;5.50;;;;;;;16.05;47.05;101405.45;107374;1263;73745;-81
2022/05/02 07:26:12;;;;;;;9.90;5.30;;;;;;;16.07;46.16;101375.99;108087;1262;72225;-81
2022/05/02 07:28:49;;;;;;;9.00;4.70;;;;;;;16.44;46.01;101400.36;108167;1261;71466;-79
2022/05/02 07:31:48;;;;;;;10.70;5.30;;;;;;;16.63;46.58;101401.55;108522;1252;71690;-82
2022/05/02 07:52:28;;;;;;;5.90;3.60;;;;;;;17.25;41.59;101390.50;109035;1250;73868;-80
2022/05/02 08:06:47;;;;;;;;;;;;;;;18.25;39.05;101380.23;108178;1262;72160;-81
2022/05/02 08:10:14;;;;;;;8.10;3.60;;;;;;;18.38;39.17;101379.73;108182;1262;69690;-80
2022/05/02 08:13:53;;;;;;;7.60;3.60;;;;;;;18.47;38.76;101376.23;108149;1263;74693;-83
2022/05/02 08:16:53;;;;;;;5.90;3.50;;;;;;;18.79;38.08;101374.56;108330;1263;59832;-82
2022/05/02 08:20:06;;;;;;;8.40;4.10;;;;;;;18.98;38.20;101368.70;108139;1263;62154;-82
2022/05/02 08:41:28;;;;;;;5.90;3.10;;;;;;;19.56;35.32;101354.77;107561;1252;57820;-82
2022/05/02 09:19:27;;;;;;;6.30;3.40;;;;;;;20.11;32.89;101315.83;107417;1273;71578;-78
2022/05/02 09:22:20;;;;;;;8.00;2.80;;;;;;;20.37;32.34;101323.95;106671;1272;59620;-78
2022/05/02 09:25:07;;;;;;;7.10;3.10;;;;;;;20.42;32.42;101322.85;106400;1272;60639;-78
2022/05/02 09:31:54;;;;;;;5.10;2.90;;;;;;;20.09;32.12;101315.71;105893;1273;72907;-71
2022/05/02 09:34:46;;;;;;;9.20;2.90;;;;;;;20.30;32.13;101314.37;105285;1273;71390;-72
2022/05/02 09:37:25;;;;;;;4.50;2.50;;;;;;;20.10;31.78;101313.84;105230;1273;74508;-73
2022/05/02 09:40:09;;;;;;;4.40;2.60;;;;;;;20.14;32.35;101308.27;105275;1273;59605;-72
2022/05/02 09:43:09;;;;;;;5.10;2.90;;;;;;;20.40;32.07;101308.35;105148;1273;60517;-74
2022/05/02 09:52:15;;;;;;;5.60;3.10;;;;;;;20.42;31.66;101293.36;105121;1272;70203;-71
2022/05/02 09:58:00;;;;;;;7.80;3.20;;;;;;;20.11;32.32;101290.41;105146;1273;59700;-72
2022/05/02 10:01:25;;;;;;;6.70;3.20;;;;;;;20.25;32.45;101288.05;104989;1274;59722;-71
2022/05/02 10:04:51;;;;;;;9.90;3.40;;;;;;;20.69;32.03;101289.11;105298;1273;63763;-69
2022/05/02 10:07:25;;;;;;;10.00;3.50;;;;;;;21.04;31.53;101292.17;105153;1276;61029;-69
2022/05/02 10:10:10;;;;;;;6.60;3.00;;;;;;;21.28;31.03;101287.86;105405;1271;69918;-70
2022/05/02 10:12:59;;;;;;;5.90;3.30;;;;;;;20.71;30.96;101286.05;105321;1273;73918;-68
2022/05/02 10:15:41;;;;;;;4.70;3.10;;;;;;;20.90;31.12;101288.02;105322;1272;61103;-70
2022/05/02 10:18:43;;;;;;;6.20;3.00;;;;;;;21.40;31.38;101287.05;105324;1273;60585;-71
2022/05/02 10:21:23;;;;;;;5.40;3.20;;;;;;;21.85;30.53;101283.25;105321;1273;63899;-74
2022/05/02 10:24:09;;;;;;;4.20;2.80;;;;;;;21.78;29.61;101278.52;105352;1273;71572;-70
2022/05/02 10:26:56;;;;;;;7.80;3.50;;;;;;;21.89;29.88;101271.54;105352;1273;59781;-69
2022/05/02 10:30:11;;;;;;;5.90;3.00;;;;;;;22.33;29.16;101273.35;105343;1273;74087;-73
2022/05/02 10:32:56;;;;;;;5.00;3.00;;;;;;;22.15;28.86;101270.57;105289;1273;59601;-75
2022/05/02 10:35:27;;;;;;;5.30;2.80;;;;;;;22.23;28.61;101267.61;105562;1271;58066;-74
2022/05/02 10:38:00;;;;;;;4.70;2.80;;;;;;;22.61;28.15;101267.83;105479;1273;64906;-70
2022/05/02 10:40:41;;;;;;;4.00;2.90;;;;;;;22.84;27.88;101260.64;105632;1270;72423;-71
2022/05/02 10:43:21;;;;;;;6.40;3.20;;;;;;;22.22;28.94;101256.93;105664;1273;59777;-72
2022/05/02 10:45:50;;;;;;;7.40;5.20;;;;;;;21.85;28.58;101257.33;105527;1273;74019;-77
2022/05/02 10:48:19;;;;;;;6.90;4.40;;;;;;;22.16;28.78;101257.40;105722;1272;61846;-73
2022/05/02 10:51:03;;;;;;;15.90;12.40;;;;;;;22.54;28.12;101251.24;105615;1273;58027;-74
2022/05/02 10:53:57;;;;;;;7.30;4.50;;;;;;;22.77;27.77;101245.60;105581;1273;74396;-75
2022/05/02 10:56:55;;;;;;;4.70;2.80;;;;;;;23.28;27.62;101245.13;105537;1273;70669;-72
2022/05/02 10:59:26;;;;;;;5.00;2.90;;;;;;;22.79;27.57;101240.91;105422;1273;61085;-72
2022/05/02 11:02:38;;;;;;;6.60;3.10;;;;;;;22.85;27.53;101238.32;105248;1273;62614;-73
2022/05/02 11:05:15;;;;;;;6.20;2.80;;;;;;;23.11;27.67;101234.77;105302;1273;60199;-71
2022/05/02 11:07:58;;;;;;;5.20;2.80;;;;;;;23.23;26.69;101230.90;105368;1273;59676;-74
2022/05/02 11:10:34;;;;;;;4.90;3.00;;;;;;;23.40;26.90;101229.98;105469;1273;74713;-71
2022/05/02 11:13:03;;;;;;;6.20;3.20;;;;;;;23.37;26.72;101225.87;105491;1273;62071;-73
2022/05/02 11:15:58;;;;;;;4.50;2.80;;;;;;;24.29;26.15;101225.61;105445;1273;69834;-73
2022/05/02 11:22:23;;;;;;;5.40;2.90;;;;;;;23.71;26.71;101218.04;105401;1273;62042;-74
2022/05/02 11:25:08;;;;;;;7.70;2.90;;;;;;;24.11;25.86;101217.05;105438;1273;61747;-67
2022/05/02 11:28:19;;;;;;;4.30;2.60;;;;;;;24.58;25.16;101214.83;105273;1273;63796;-66
2022/05/02 11:31:09;;;;;;;4.30;2.90;;;;;;;24.67;24.97;101211.80;105234;1273;70604;-68
2022/05/02 11:33:49;;;;;;;4.60;2.90;;;;;;;24.81;24.27;101214.27;105280;1273;69892;-65
2022/05/02 11:36:26;;;;;;;5.20;2.90;;;;;;;24.67;24.31;101209.05;105351;1273;73770;-67
2022/05/02 11:39:08;;;;;;;6.50;3.00;;;;;;;24.47;24.84;101202.73;105603;1273;59560;-70
2022/05/02 11:41:45;;;;;;;5.80;3.10;;;;;;;25.20;24.17;101205.29;105588;1273;59514;-67
2022/05/02 11:44:15;;;;;;;5.50;3.00;;;;;;;24.86;24.31;101201.89;105534;1273;63935;-70
2022/05/02 11:47:15;;;;;;;4.00;2.70;;;;;;;24.78;24.83;101192.83;105324;1273;72582;-70
2022/05/02 11:50:06;;;;;;;4.00;2.70;;;;;;;25.10;24.41;101188.61;105425;1273;59780;-65
2022/05/02 11:52:38;;;;;;;7.60;3.00;;;;;;;25.21;23.40;101181.31;105244;1273;73482;-70
2022/05/02 11:55:09;;;;;;;5.50;3.30;;;;;;;24.57;24.61;101175.06;105346;1273;60457;-65
2022/05/02 11:57:49;;;;;;;4.40;2.60;;;;;;;25.14;24.10;101165.05;105445;1273;59569;-66
2022/05/02 12:00:19;;;;;;;5.90;2.60;;;;;;;25.98;23.43;101165.75;105433;1271;74939;-67
2022/05/02 12:03:10;;;;;;;5.10;2.80;;;;;;;25.79;22.99;101166.45;105473;1273;73143;-70
2022/05/02 12:05:57;;;;;;;13.30;3.40;;;;;;;25.29;23.30;101162.77;105446;1273;71107;-68
2022/05/02 12:08:34;;;;;;;6.60;2.80;;;;;;;25.21;23.47;101155.80;105391;1273;74796;-71
2022/05/02 12:11:08;;;;;;;6.30;3.20;;;;;;;25.90;22.92;101147.92;105465;1273;59667;-68
2022/05/02 12:13:46;;;;;;;7.10;4.70;;;;;;;26.21;22.56;101147.57;105256;1272;60620;-67
2022/05/02 12:16:19;;;;;;;6.30;3.00;;;;;;;27.39;22.32;101145.92;105411;1273;63756;-66
2022/05/02 12:18:53;;;;;;;5.30;3.20;;;;;;;27.30;21.61;101142.36;105235;1273;61803;-66
2022/05/02 12:21:47;;;;;;;6.40;3.20;;;;;;;27.62;21.34;101144.60;105314;1272;60155;-70
2022/05/02 12:24:29;;;;;;;6.40;3.00;;;;;;;28.29;20.96;101136.82;105278;1273;62630;-67
2022/05/02 12:26:58;;;;;;;5.40;2.60;;;;;;;26.63;21.71;101128.09;105272;1273;59614;-68
2022/05/02 12:29:28;;;;;;;8.10;3.50;;;;;;;26.35;22.20;101127.54;105289;1271;60556;-65
2022/05/02 12:32:04;;;;;;;7.50;3.00;;;;;;;26.06;22.67;101127.61;105357;1273;63778;-67
2022/05/02 12:34:40;;;;;;;7.20;2.70;;;;;;;24.00;25.07;101129.33;105325;1273;72650;-66
2022/05/02 12:37:23;;;;;;;6.70;3.50;;;;;;;24.07;25.49;101127.19;105263;1273;60012;-74
2022/05/02 12:44:11;;;;;;;8.60;3.50;;;;;;;22.81;26.86;101117.42;107497;1273;58450;-83
2022/05/02 13:19:06;;;;;;;5.20;3.10;;;;;;;24.12;26.23;101087.10;93001;1270;70817;31
2022/05/02 13:47:14;;;;;;;6.30;3.00;;;;;;;21.54;28.98;101065.51;95394;1265;954806;-83
2022/05/02 13:49:56;;;;;;;6.90;3.30;;;;;;;21.59;29.03;101067.91;107163;1276;65289;-83
2022/05/02 13:52:51;;;;;;;6.40;3.20;;;;;;;21.54;29.06;101066.39;106904;1277;60622;-80
2022/05/02 13:55:57;;;;;;;5.50;2.90;;;;;;;21.18;29.28;101067.91;106674;1277;60707;-78
2022/05/02 13:59:01;;;;;;;5.00;2.80;;;;;;;21.26;29.22;101059.41;106558;1278;74506;-80
2022/05/02 14:01:59;;;;;;;5.40;2.80;;;;;;;21.00;29.37;101057.91;107057;1277;72046;-83
2022/05/02 14:04:52;;;;;;;4.70;2.80;;;;;;;20.95;29.42;101053.38;107321;1276;60179;-78
2022/05/02 14:07:24;;;;;;;9.50;3.20;;;;;;;20.91;29.42;101052.35;106212;1276;62634;-77
2022/05/02 14:09:55;;;;;;;5.00;3.00;;;;;;;21.11;29.64;101052.03;106486;1276;59648;-80
2022/05/02 14:12:36;;;;;;;5.40;3.20;;;;;;;21.41;29.38;101049.94;106912;1276;58161;-80
2022/05/02 14:15:34;;;;;;;;;;;;;;;;;;;;;
2022/05/02 14:34:36;;;;;;;7.60;3.00;;;;;;;21.80;28.82;101052.59;107372;1276;57965;-82
2022/05/02 16:04:10;;;;;;;4.70;2.50;;;;;;;27.69;20.07;101003.55;92438;1270;62620;-81
2022/05/02 16:06:54;;;;;;;6.30;2.40;;;;;;;26.52;21.19;101005.39;106611;1276;61924;-79
2022/05/02 16:12:17;;;;;;;5.90;2.90;;;;;;;25.41;22.40;101002.06;106524;1279;74670;-81
2022/05/02 16:14:47;;;;;;;4.50;2.90;;;;;;;25.58;22.15;100998.77;106534;1279;71754;-78
2022/05/02 16:17:18;;;;;;;4.40;2.70;;;;;;;24.48;23.37;101004.00;106621;1279;71653;-79
2022/05/02 16:19:47;;;;;;;10.10;3.10;;;;;;;23.79;24.32;101000.69;106456;1279;63053;-80
2022/05/02 16:22:17;;;;;;;5.20;2.80;;;;;;;24.00;24.28;101002.29;106153;1279;59786;-80
2022/05/02 16:24:47;;;;;;;6.00;3.30;;;;;;;24.35;23.78;100999.33;106239;1279;58192;-80
2022/05/02 16:27:21;;;;;;;7.10;3.80;;;;;;;24.67;23.46;100997.50;105940;1278;64341;-80
2022/05/02 16:34:16;;;;;;;7.40;3.30;;;;;;;23.70;24.81;101000.73;106510;1279;60101;-79
2022/05/02 16:37:42;;;;;;;8.00;3.80;;;;;;;23.62;25.00;101004.09;106884;1279;63775;-83
2022/05/02 16:44:48;;;;;;;8.70;3.20;;;;;;;21.81;27.42;101000.73;106865;1279;57828;-81
2022/05/02 16:47:22;;;;;;;7.90;3.50;;;;;;;21.40;28.21;100999.95;106822;1279;64820;-81
2022/05/02 16:49:52;;;;;;;12.10;3.70;;;;;;;21.00;29.10;101000.88;106382;1279;69898;-82
2022/05/02 16:58:05;;;;;;;11.70;4.10;;;;;;;20.33;30.33;101002.42;106203;1279;62445;-80
2022/05/02 17:00:37;;;;;;;10.70;4.40;;;;;;;19.99;30.99;101002.27;105493;1279;59667;-81
2022/05/02 17:07:00;;;;;;;8.00;4.20;;;;;;;19.36;32.50;100999.24;106060;1276;64847;-82
2022/05/02 17:10:14;;;;;;;13.40;4.50;;;;;;;19.08;33.06;101000.23;106036;1278;61571;-79
2022/05/02 17:12:44;;;;;;;13.60;4.30;;;;;;;18.87;33.39;100997.75;105870;1279;60118;-79
2022/05/02 17:15:13;;;;;;;10.80;5.20;;;;;;;18.73;33.74;100997.30;105830;1276;63423;-79
2022/05/02 17:17:51;;;;;;;9.30;4.40;;;;;;;18.56;34.23;101003.70;106019;1276;59162;-83
2022/05/02 17:20:21;;;;;;;9.00;4.40;;;;;;;18.37;34.98;101003.41;106000;1276;59859;-82
2022/05/02 17:22:50;;;;;;;9.30;4.70;;;;;;;18.28;35.37;101003.59;106139;1276;63067;-79
2022/05/02 17:25:22;;;;;;;13.20;4.70;;;;;;;18.12;35.44;101004.79;106021;1276;62618;-79
2022/05/02 17:27:58;;;;;;;8.40;4.90;;;;;;;17.99;35.33;101007.89;105807;1276;70351;-80
2022/05/02 17:30:29;;;;;;;18.60;5.10;;;;;;;17.83;36.76;101009.06;105621;1276;74627;-80
2022/05/02 17:33:00;;;;;;;12.00;6.00;;;;;;;17.70;37.23;101010.13;105618;1276;60865;-78
2022/05/02 17:35:32;;;;;;;9.00;4.90;;;;;;;17.51;37.23;101007.23;106320;1276;62049;-80
2022/05/02 17:42:58;;;;;;;10.90;5.30;;;;;;;17.16;37.99;101016.41;106696;1276;63195;-81